sensor_id;sensor_type;location;lat;lon;timestamp;pressure;altitude;pressure_sealevel;temperature;humidity
65614;BME280;52283;49.292;10.572;2024-02-28T00:01:04;96429.56;;;5.57;100.00
65614;BME280;52283;49.292;10.572;2024-02-28T00:03:31;96430.13;;;5.46;100.00
65614;BME280;52283;49.292;10.572;2024-02-28T00:05:58;96428.97;;;5.29;100.00
65614;BME280;52283;49.292;10.572;2024-02-28T00:08:25;96422.69;;;5.19;100.00
65614;BME280;52283;49.292;10.572;2024-02-28T00:10:51;96426.34;;;4.93;100.00
65614;BME280;52283;49.292;10.572;2024-02-28T00:13:20;96426.50;;;4.89;100.00
65614;BME280;52283;49.292;10.572;2024-02-28T00:15:47;96427.31;;;4.80;100.00
65614;BME280;52283;49.292;10.572;2024-02-28T00:18:14;96418.50;;;4.91;100.00
65614;BME280;52283;49.292;10.572;2024-02-28T00:20:40;96416.38;;;4.86;100.00
65614;BME280;52283;49.292;10.572;2024-02-28T00:23:07;96418.44;;;5.09;100.00
65614;BME280;52283;49.292;10.572;2024-02-28T00:25:33;96422.06;;;5.25;100.00
65614;BME280;52283;49.292;10.572;2024-02-28T00:28:00;96424.03;;;4.91;100.00
65614;BME280;52283;49.292;10.572;2024-02-28T00:30:28;96418.97;;;4.89;100.00
65614;BME280;52283;49.292;10.572;2024-02-28T00:32:54;96427.25;;;4.89;100.00
65614;BME280;52283;49.292;10.572;2024-02-28T00:35:21;96419.06;;;5.04;100.00
65614;BME280;52283;49.292;10.572;2024-02-28T00:37:47;96423.53;;;5.02;100.00
65614;BME280;52283;49.292;10.572;2024-02-28T00:40:14;96422.38;;;5.17;100.00
65614;BME280;52283;49.292;10.572;2024-02-28T00:42:40;96417.38;;;5.07;100.00
65614;BME280;52283;49.292;10.572;2024-02-28T00:45:09;96418.56;;;5.15;100.00
65614;BME280;52283;49.292;10.572;2024-02-28T00:47:37;96428.84;;;5.24;100.00
65614;BME280;52283;49.292;10.572;2024-02-28T00:50:05;96415.00;;;5.14;100.00
65614;BME280;52283;49.292;10.572;2024-02-28T00:52:32;96430.16;;;4.95;100.00
65614;BME280;52283;49.292;10.572;2024-02-28T00:54:58;96433.31;;;5.21;100.00
65614;BME280;52283;49.292;10.572;2024-02-28T00:57:25;96430.31;;;5.01;100.00
65614;BME280;52283;49.292;10.572;2024-02-28T00:59:51;96426.53;;;4.80;100.00
65614;BME280;52283;49.292;10.572;2024-02-28T01:02:19;96423.91;;;4.85;100.00
65614;BME280;52283;49.292;10.572;2024-02-28T01:04:47;96433.44;;;4.75;100.00
65614;BME280;52283;49.292;10.572;2024-02-28T01:07:14;96420.66;;;4.87;100.00
65614;BME280;52283;49.292;10.572;2024-02-28T01:09:40;96421.44;;;4.87;100.00
65614;BME280;52283;49.292;10.572;2024-02-28T01:12:07;96428.38;;;4.83;100.00
65614;BME280;52283;49.292;10.572;2024-02-28T01:14:34;96431.69;;;4.96;100.00
65614;BME280;52283;49.292;10.572;2024-02-28T01:17:00;96427.56;;;5.01;100.00
65614;BME280;52283;49.292;10.572;2024-02-28T01:19:27;96430.75;;;5.08;100.00
65614;BME280;52283;49.292;10.572;2024-02-28T01:21:54;96427.22;;;4.99;100.00
65614;BME280;52283;49.292;10.572;2024-02-28T01:24:21;96426.47;;;4.98;100.00
65614;BME280;52283;49.292;10.572;2024-02-28T01:26:48;96428.97;;;4.78;100.00
65614;BME280;52283;49.292;10.572;2024-02-28T01:29:14;96432.25;;;4.58;100.00
65614;BME280;52283;49.292;10.572;2024-02-28T01:31:40;96428.88;;;4.54;100.00
65614;BME280;52283;49.292;10.572;2024-02-28T01:34:07;96435.66;;;4.35;100.00
65614;BME280;52283;49.292;10.572;2024-02-28T01:36:34;96429.81;;;4.51;100.00
65614;BME280;52283;49.292;10.572;2024-02-28T01:39:02;96437.22;;;4.36;100.00
65614;BME280;52283;49.292;10.572;2024-02-28T01:41:28;96430.75;;;4.48;100.00
65614;BME280;52283;49.292;10.572;2024-02-28T01:43:55;96426.38;;;4.74;100.00
65614;BME280;52283;49.292;10.572;2024-02-28T01:46:24;96427.63;;;4.73;100.00
65614;BME280;52283;49.292;10.572;2024-02-28T01:48:52;96433.16;;;4.82;100.00
65614;BME280;52283;49.292;10.572;2024-02-28T01:51:19;96432.25;;;4.58;100.00
65614;BME280;52283;49.292;10.572;2024-02-28T01:53:47;96436.41;;;4.63;100.00
65614;BME280;52283;49.292;10.572;2024-02-28T01:56:16;96446.25;;;4.64;100.00
65614;BME280;52283;49.292;10.572;2024-02-28T01:58:45;96449.03;;;4.64;100.00
65614;BME280;52283;49.292;10.572;2024-02-28T02:01:13;96439.50;;;4.65;100.00
65614;BME280;52283;49.292;10.572;2024-02-28T02:03:40;96451.00;;;4.72;100.00
65614;BME280;52283;49.292;10.572;2024-02-28T02:06:07;96455.31;;;4.64;100.00
65614;BME280;52283;49.292;10.572;2024-02-28T02:08:34;96455.72;;;4.90;100.00
65614;BME280;52283;49.292;10.572;2024-02-28T02:11:01;96460.78;;;4.92;100.00
65614;BME280;52283;49.292;10.572;2024-02-28T02:13:28;96462.53;;;4.71;100.00
65614;BME280;52283;49.292;10.572;2024-02-28T02:15:55;96470.88;;;4.52;100.00
65614;BME280;52283;49.292;10.572;2024-02-28T02:18:22;96474.41;;;4.62;100.00
65614;BME280;52283;49.292;10.572;2024-02-28T02:20:50;96483.78;;;4.46;100.00
65614;BME280;52283;49.292;10.572;2024-02-28T02:23:20;96488.25;;;4.35;100.00
65614;BME280;52283;49.292;10.572;2024-02-28T02:25:48;96479.03;;;4.47;100.00
65614;BME280;52283;49.292;10.572;2024-02-28T02:28:15;96486.22;;;4.53;100.00
65614;BME280;52283;49.292;10.572;2024-02-28T02:30:41;96500.34;;;4.74;100.00
65614;BME280;52283;49.292;10.572;2024-02-28T02:33:08;96502.03;;;4.89;100.00
65614;BME280;52283;49.292;10.572;2024-02-28T02:35:35;96505.44;;;4.66;100.00
65614;BME280;52283;49.292;10.572;2024-02-28T02:38:01;96509.91;;;4.73;100.00
65614;BME280;52283;49.292;10.572;2024-02-28T02:40:29;96510.03;;;4.87;100.00
65614;BME280;52283;49.292;10.572;2024-02-28T02:42:56;96510.97;;;4.57;100.00
65614;BME280;52283;49.292;10.572;2024-02-28T02:45:22;96517.75;;;4.47;100.00
65614;BME280;52283;49.292;10.572;2024-02-28T02:47:49;96522.38;;;4.41;100.00
65614;BME280;52283;49.292;10.572;2024-02-28T02:50:15;96522.66;;;4.34;100.00
65614;BME280;52283;49.292;10.572;2024-02-28T02:52:42;96522.03;;;4.75;100.00
65614;BME280;52283;49.292;10.572;2024-02-28T02:55:08;96523.91;;;4.69;100.00
65614;BME280;52283;49.292;10.572;2024-02-28T02:57:36;96525.44;;;4.70;100.00
65614;BME280;52283;49.292;10.572;2024-02-28T03:00:04;96529.09;;;4.76;100.00
65614;BME280;52283;49.292;10.572;2024-02-28T03:02:31;96541.41;;;4.94;100.00
65614;BME280;52283;49.292;10.572;2024-02-28T03:04:57;96533.44;;;4.59;100.00
65614;BME280;52283;49.292;10.572;2024-02-28T03:07:23;96545.91;;;4.45;100.00
65614;BME280;52283;49.292;10.572;2024-02-28T03:09:50;96542.19;;;4.57;100.00
65614;BME280;52283;49.292;10.572;2024-02-28T03:12:17;96545.09;;;4.36;100.00
65614;BME280;52283;49.292;10.572;2024-02-28T03:14:44;96544.34;;;4.53;100.00
65614;BME280;52283;49.292;10.572;2024-02-28T03:17:11;96550.03;;;4.50;100.00
65614;BME280;52283;49.292;10.572;2024-02-28T03:19:37;96552.97;;;4.55;100.00
65614;BME280;52283;49.292;10.572;2024-02-28T03:22:04;96553.56;;;4.32;100.00
65614;BME280;52283;49.292;10.572;2024-02-28T03:24:30;96559.38;;;4.16;100.00
65614;BME280;52283;49.292;10.572;2024-02-28T03:26:57;96551.06;;;4.16;100.00
65614;BME280;52283;49.292;10.572;2024-02-28T03:29:23;96554.19;;;4.27;100.00
65614;BME280;52283;49.292;10.572;2024-02-28T03:31:51;96556.94;;;4.18;100.00
65614;BME280;52283;49.292;10.572;2024-02-28T03:34:18;96556.31;;;4.23;100.00
65614;BME280;52283;49.292;10.572;2024-02-28T03:36:44;96567.69;;;4.34;100.00
65614;BME280;52283;49.292;10.572;2024-02-28T03:39:11;96570.50;;;4.52;100.00
65614;BME280;52283;49.292;10.572;2024-02-28T03:41:38;96578.78;;;4.52;100.00
65614;BME280;52283;49.292;10.572;2024-02-28T03:44:05;96577.53;;;4.35;100.00
65614;BME280;52283;49.292;10.572;2024-02-28T03:46:31;96582.75;;;4.24;100.00
65614;BME280;52283;49.292;10.572;2024-02-28T03:48:59;96582.00;;;4.23;100.00
65614;BME280;52283;49.292;10.572;2024-02-28T03:51:26;96587.50;;;4.14;100.00
65614;BME280;52283;49.292;10.572;2024-02-28T03:53:52;96596.28;;;4.22;100.00
65614;BME280;52283;49.292;10.572;2024-02-28T03:56:22;96596.00;;;4.38;100.00
65614;BME280;52283;49.292;10.572;2024-02-28T03:58:50;96603.69;;;4.52;100.00
65614;BME280;52283;49.292;10.572;2024-02-28T04:01:16;96599.97;;;4.19;100.00
65614;BME280;52283;49.292;10.572;2024-02-28T04:03:43;96599.97;;;4.37;100.00
65614;BME280;52283;49.292;10.572;2024-02-28T04:06:11;96597.84;;;4.41;100.00
65614;BME280;52283;49.292;10.572;2024-02-28T04:08:38;96608.78;;;4.63;100.00
65614;BME280;52283;49.292;10.572;2024-02-28T04:11:06;96600.94;;;4.71;100.00
65614;BME280;52283;49.292;10.572;2024-02-28T04:13:33;96595.56;;;4.95;100.00
65614;BME280;52283;49.292;10.572;2024-02-28T04:15:59;96602.81;;;4.83;100.00
65614;BME280;52283;49.292;10.572;2024-02-28T04:18:28;96608.50;;;4.61;100.00
65614;BME280;52283;49.292;10.572;2024-02-28T04:20:55;96603.84;;;4.49;100.00
65614;BME280;52283;49.292;10.572;2024-02-28T04:23:22;96604.16;;;4.42;100.00
65614;BME280;52283;49.292;10.572;2024-02-28T04:25:49;96603.53;;;4.38;100.00
65614;BME280;52283;49.292;10.572;2024-02-28T04:28:15;96608.47;;;4.52;100.00
65614;BME280;52283;49.292;10.572;2024-02-28T04:30:42;96608.88;;;4.23;100.00
65614;BME280;52283;49.292;10.572;2024-02-28T04:33:09;96608.94;;;4.41;100.00
65614;BME280;52283;49.292;10.572;2024-02-28T04:35:35;96596.31;;;4.49;100.00
65614;BME280;52283;49.292;10.572;2024-02-28T04:38:02;96606.63;;;4.49;100.00
65614;BME280;52283;49.292;10.572;2024-02-28T04:40:29;96611.03;;;4.19;100.00
65614;BME280;52283;49.292;10.572;2024-02-28T04:42:56;96608.38;;;3.97;100.00
65614;BME280;52283;49.292;10.572;2024-02-28T04:45:23;96609.91;;;3.98;100.00
65614;BME280;52283;49.292;10.572;2024-02-28T04:47:49;96611.91;;;4.16;100.00
65614;BME280;52283;49.292;10.572;2024-02-28T04:50:17;96613.03;;;4.27;100.00
65614;BME280;52283;49.292;10.572;2024-02-28T04:52:43;96609.03;;;4.28;100.00
65614;BME280;52283;49.292;10.572;2024-02-28T04:55:10;96611.38;;;4.39;100.00
65614;BME280;52283;49.292;10.572;2024-02-28T04:57:39;96617.91;;;4.14;100.00
65614;BME280;52283;49.292;10.572;2024-02-28T05:00:06;96613.28;;;4.02;100.00
65614;BME280;52283;49.292;10.572;2024-02-28T05:02:34;96607.72;;;3.93;100.00
65614;BME280;52283;49.292;10.572;2024-02-28T05:05:00;96605.78;;;4.12;100.00
65614;BME280;52283;49.292;10.572;2024-02-28T05:07:27;96603.91;;;4.09;100.00
65614;BME280;52283;49.292;10.572;2024-02-28T05:09:53;96606.53;;;4.12;100.00
65614;BME280;52283;49.292;10.572;2024-02-28T05:12:20;96597.97;;;4.28;100.00
65614;BME280;52283;49.292;10.572;2024-02-28T05:14:48;96610.72;;;4.26;100.00
65614;BME280;52283;49.292;10.572;2024-02-28T05:17:14;96616.53;;;4.10;100.00
65614;BME280;52283;49.292;10.572;2024-02-28T05:19:42;96620.88;;;4.29;100.00
65614;BME280;52283;49.292;10.572;2024-02-28T05:22:08;96622.25;;;4.34;100.00
65614;BME280;52283;49.292;10.572;2024-02-28T05:24:36;96629.19;;;4.29;100.00
65614;BME280;52283;49.292;10.572;2024-02-28T05:27:03;96627.94;;;4.21;100.00
65614;BME280;52283;49.292;10.572;2024-02-28T05:29:29;96629.97;;;4.39;100.00
65614;BME280;52283;49.292;10.572;2024-02-28T05:31:57;96626.91;;;3.87;100.00
65614;BME280;52283;49.292;10.572;2024-02-28T05:34:23;96616.00;;;3.93;100.00
65614;BME280;52283;49.292;10.572;2024-02-28T05:36:50;96623.84;;;3.94;100.00
65614;BME280;52283;49.292;10.572;2024-02-28T05:39:16;96622.19;;;4.06;100.00
65614;BME280;52283;49.292;10.572;2024-02-28T05:41:43;96624.66;;;4.13;100.00
65614;BME280;52283;49.292;10.572;2024-02-28T05:44:10;96625.94;;;4.21;100.00
65614;BME280;52283;49.292;10.572;2024-02-28T05:46:36;96626.88;;;4.27;100.00
65614;BME280;52283;49.292;10.572;2024-02-28T05:49:04;96624.34;;;4.02;100.00
65614;BME280;52283;49.292;10.572;2024-02-28T05:51:30;96628.97;;;4.14;100.00
65614;BME280;52283;49.292;10.572;2024-02-28T05:53:57;96624.97;;;4.06;100.00
65614;BME280;52283;49.292;10.572;2024-02-28T05:56:23;96627.59;;;4.10;100.00
65614;BME280;52283;49.292;10.572;2024-02-28T05:58:50;96628.03;;;4.08;100.00
65614;BME280;52283;49.292;10.572;2024-02-28T06:01:17;96637.16;;;4.27;100.00
65614;BME280;52283;49.292;10.572;2024-02-28T06:03:45;96640.16;;;4.02;100.00
65614;BME280;52283;49.292;10.572;2024-02-28T06:06:13;96649.41;;;4.08;100.00
65614;BME280;52283;49.292;10.572;2024-02-28T06:08:40;96652.16;;;4.08;100.00
65614;BME280;52283;49.292;10.572;2024-02-28T06:11:07;96653.00;;;4.26;100.00
65614;BME280;52283;49.292;10.572;2024-02-28T06:13:35;96654.75;;;4.02;100.00
65614;BME280;52283;49.292;10.572;2024-02-28T06:16:02;96654.63;;;4.06;100.00
65614;BME280;52283;49.292;10.572;2024-02-28T06:18:29;96660.94;;;4.15;100.00
65614;BME280;52283;49.292;10.572;2024-02-28T06:20:59;96669.84;;;4.10;100.00
65614;BME280;52283;49.292;10.572;2024-02-28T06:23:27;96672.97;;;4.31;100.00
65614;BME280;52283;49.292;10.572;2024-02-28T06:25:53;96679.91;;;4.35;100.00
65614;BME280;52283;49.292;10.572;2024-02-28T06:28:19;96684.94;;;4.18;100.00
65614;BME280;52283;49.292;10.572;2024-02-28T06:30:46;96686.66;;;4.34;100.00
65614;BME280;52283;49.292;10.572;2024-02-28T06:33:12;96687.31;;;3.98;100.00
65614;BME280;52283;49.292;10.572;2024-02-28T06:35:39;96693.94;;;4.01;100.00
65614;BME280;52283;49.292;10.572;2024-02-28T06:38:06;96691.50;;;4.12;100.00
65614;BME280;52283;49.292;10.572;2024-02-28T06:40:35;96694.38;;;3.99;100.00
65614;BME280;52283;49.292;10.572;2024-02-28T06:43:02;96693.56;;;3.89;100.00
65614;BME280;52283;49.292;10.572;2024-02-28T06:45:30;96706.25;;;4.09;100.00
65614;BME280;52283;49.292;10.572;2024-02-28T06:47:57;96700.19;;;4.32;100.00
65614;BME280;52283;49.292;10.572;2024-02-28T06:50:23;96707.41;;;4.29;100.00
65614;BME280;52283;49.292;10.572;2024-02-28T06:52:50;96698.63;;;4.22;100.00
65614;BME280;52283;49.292;10.572;2024-02-28T06:55:18;96712.88;;;4.11;100.00
65614;BME280;52283;49.292;10.572;2024-02-28T06:57:46;96714.47;;;4.21;100.00
65614;BME280;52283;49.292;10.572;2024-02-28T07:00:13;96718.94;;;4.28;100.00
65614;BME280;52283;49.292;10.572;2024-02-28T07:02:41;96719.88;;;4.34;100.00
65614;BME280;52283;49.292;10.572;2024-02-28T07:05:08;96729.81;;;4.22;100.00
65614;BME280;52283;49.292;10.572;2024-02-28T07:07:34;96728.16;;;4.34;100.00
65614;BME280;52283;49.292;10.572;2024-02-28T07:10:03;96747.66;;;4.21;100.00
65614;BME280;52283;49.292;10.572;2024-02-28T07:12:30;96746.97;;;4.08;100.00
65614;BME280;52283;49.292;10.572;2024-02-28T07:14:58;96746.88;;;4.21;100.00
65614;BME280;52283;49.292;10.572;2024-02-28T07:17:25;96758.88;;;4.27;100.00
65614;BME280;52283;49.292;10.572;2024-02-28T07:19:51;96749.28;;;4.41;100.00
65614;BME280;52283;49.292;10.572;2024-02-28T07:22:18;96759.66;;;4.27;100.00
65614;BME280;52283;49.292;10.572;2024-02-28T07:24:44;96753.84;;;4.35;100.00
65614;BME280;52283;49.292;10.572;2024-02-28T07:27:12;96757.66;;;4.28;100.00
65614;BME280;52283;49.292;10.572;2024-02-28T07:29:39;96763.78;;;4.23;100.00
65614;BME280;52283;49.292;10.572;2024-02-28T07:32:07;96755.06;;;4.34;100.00
65614;BME280;52283;49.292;10.572;2024-02-28T07:34:33;96762.50;;;4.46;100.00
65614;BME280;52283;49.292;10.572;2024-02-28T07:37:00;96771.34;;;4.32;100.00
65614;BME280;52283;49.292;10.572;2024-02-28T07:39:26;96759.28;;;4.47;100.00
65614;BME280;52283;49.292;10.572;2024-02-28T07:41:53;96762.13;;;4.35;100.00
65614;BME280;52283;49.292;10.572;2024-02-28T07:44:19;96765.47;;;4.20;100.00
65614;BME280;52283;49.292;10.572;2024-02-28T07:46:45;96768.66;;;4.41;100.00
65614;BME280;52283;49.292;10.572;2024-02-28T07:49:13;96777.88;;;4.47;100.00
65614;BME280;52283;49.292;10.572;2024-02-28T07:51:40;96781.78;;;4.58;100.00
65614;BME280;52283;49.292;10.572;2024-02-28T07:54:07;96783.72;;;4.49;100.00
65614;BME280;52283;49.292;10.572;2024-02-28T07:56:33;96784.34;;;4.53;100.00
65614;BME280;52283;49.292;10.572;2024-02-28T07:59:00;96784.41;;;4.31;100.00
65614;BME280;52283;49.292;10.572;2024-02-28T08:01:26;96792.44;;;4.07;100.00
65614;BME280;52283;49.292;10.572;2024-02-28T08:03:52;96791.03;;;4.03;100.00
65614;BME280;52283;49.292;10.572;2024-02-28T08:06:21;96789.81;;;4.04;100.00
65614;BME280;52283;49.292;10.572;2024-02-28T08:08:47;96795.06;;;4.11;100.00
65614;BME280;52283;49.292;10.572;2024-02-28T08:11:14;96797.78;;;4.02;100.00
65614;BME280;52283;49.292;10.572;2024-02-28T08:13:40;96804.91;;;4.12;100.00
65614;BME280;52283;49.292;10.572;2024-02-28T08:16:09;96812.25;;;4.06;100.00
65614;BME280;52283;49.292;10.572;2024-02-28T08:18:35;96813.72;;;4.19;100.00
65614;BME280;52283;49.292;10.572;2024-02-28T08:21:02;96813.91;;;4.25;100.00
65614;BME280;52283;49.292;10.572;2024-02-28T08:23:30;96811.84;;;4.16;100.00
65614;BME280;52283;49.292;10.572;2024-02-28T08:25:57;96822.78;;;4.20;100.00
65614;BME280;52283;49.292;10.572;2024-02-28T08:28:24;96817.38;;;4.16;100.00
65614;BME280;52283;49.292;10.572;2024-02-28T08:30:50;96820.22;;;4.04;100.00
65614;BME280;52283;49.292;10.572;2024-02-28T08:33:16;96814.41;;;4.33;100.00
65614;BME280;52283;49.292;10.572;2024-02-28T08:35:43;96815.94;;;4.34;100.00
65614;BME280;52283;49.292;10.572;2024-02-28T08:38:09;96822.91;;;4.38;100.00
65614;BME280;52283;49.292;10.572;2024-02-28T08:40:37;96828.19;;;4.23;100.00
65614;BME280;52283;49.292;10.572;2024-02-28T08:43:04;96831.88;;;4.20;100.00
65614;BME280;52283;49.292;10.572;2024-02-28T08:45:31;96840.94;;;4.21;100.00
65614;BME280;52283;49.292;10.572;2024-02-28T08:47:57;96848.19;;;4.27;100.00
65614;BME280;52283;49.292;10.572;2024-02-28T08:50:26;96844.03;;;4.01;100.00
65614;BME280;52283;49.292;10.572;2024-02-28T08:52:53;96843.50;;;4.15;100.00
65614;BME280;52283;49.292;10.572;2024-02-28T08:55:19;96847.81;;;4.38;100.00
65614;BME280;52283;49.292;10.572;2024-02-28T08:57:48;96841.75;;;4.62;100.00
65614;BME280;52283;49.292;10.572;2024-02-28T09:00:15;96846.53;;;4.61;100.00
65614;BME280;52283;49.292;10.572;2024-02-28T09:02:42;96842.38;;;4.35;100.00
65614;BME280;52283;49.292;10.572;2024-02-28T09:05:09;96842.97;;;4.29;100.00
65614;BME280;52283;49.292;10.572;2024-02-28T09:07:35;96841.63;;;4.12;100.00
65614;BME280;52283;49.292;10.572;2024-02-28T09:10:03;96838.16;;;4.21;100.00
65614;BME280;52283;49.292;10.572;2024-02-28T09:12:30;96844.59;;;4.18;100.00
65614;BME280;52283;49.292;10.572;2024-02-28T09:14:58;96850.06;;;4.09;100.00
65614;BME280;52283;49.292;10.572;2024-02-28T09:17:25;96847.63;;;4.11;100.00
65614;BME280;52283;49.292;10.572;2024-02-28T09:19:52;96846.97;;;4.07;100.00
65614;BME280;52283;49.292;10.572;2024-02-28T09:22:19;96842.34;;;4.04;100.00
65614;BME280;52283;49.292;10.572;2024-02-28T09:24:46;96846.66;;;4.26;100.00
65614;BME280;52283;49.292;10.572;2024-02-28T09:27:13;96837.53;;;4.17;100.00
65614;BME280;52283;49.292;10.572;2024-02-28T09:29:39;96839.72;;;4.22;100.00
65614;BME280;52283;49.292;10.572;2024-02-28T09:32:07;96838.22;;;4.30;100.00
65614;BME280;52283;49.292;10.572;2024-02-28T09:34:34;96830.22;;;4.32;100.00
65614;BME280;52283;49.292;10.572;2024-02-28T09:37:01;96837.81;;;4.41;100.00
65614;BME280;52283;49.292;10.572;2024-02-28T09:39:29;96843.38;;;4.81;100.00
65614;BME280;52283;49.292;10.572;2024-02-28T09:41:55;96846.16;;;4.81;100.00
65614;BME280;52283;49.292;10.572;2024-02-28T09:44:23;96840.66;;;4.99;100.00
65614;BME280;52283;49.292;10.572;2024-02-28T09:46:51;96839.72;;;4.93;100.00
65614;BME280;52283;49.292;10.572;2024-02-28T09:49:19;96844.84;;;5.13;100.00
65614;BME280;52283;49.292;10.572;2024-02-28T09:51:48;96851.97;;;5.23;100.00
65614;BME280;52283;49.292;10.572;2024-02-28T09:54:16;96852.84;;;5.02;100.00
65614;BME280;52283;49.292;10.572;2024-02-28T09:56:42;96853.47;;;5.15;100.00
65614;BME280;52283;49.292;10.572;2024-02-28T09:59:09;96856.34;;;4.93;100.00
65614;BME280;52283;49.292;10.572;2024-02-28T10:01:42;96858.22;;;5.05;100.00
65614;BME280;52283;49.292;10.572;2024-02-28T10:04:09;96858.31;;;4.83;100.00
65614;BME280;52283;49.292;10.572;2024-02-28T10:06:39;96862.38;;;5.01;100.00
65614;BME280;52283;49.292;10.572;2024-02-28T10:09:06;96860.75;;;5.22;100.00
65614;BME280;52283;49.292;10.572;2024-02-28T10:11:33;96856.44;;;5.20;100.00
65614;BME280;52283;49.292;10.572;2024-02-28T10:14:01;96865.47;;;5.03;100.00
65614;BME280;52283;49.292;10.572;2024-02-28T10:16:27;96860.47;;;4.88;100.00
65614;BME280;52283;49.292;10.572;2024-02-28T10:18:54;96859.84;;;5.25;100.00
65614;BME280;52283;49.292;10.572;2024-02-28T10:21:20;96859.22;;;5.30;100.00
65614;BME280;52283;49.292;10.572;2024-02-28T10:23:49;96863.63;;;5.18;100.00
65614;BME280;52283;49.292;10.572;2024-02-28T10:26:16;96871.47;;;5.10;100.00
65614;BME280;52283;49.292;10.572;2024-02-28T10:28:42;96865.84;;;5.32;100.00
65614;BME280;52283;49.292;10.572;2024-02-28T10:31:10;96868.91;;;5.25;100.00
65614;BME280;52283;49.292;10.572;2024-02-28T10:33:37;96878.53;;;5.02;100.00
65614;BME280;52283;49.292;10.572;2024-02-28T10:36:04;96882.50;;;5.60;100.00
65614;BME280;52283;49.292;10.572;2024-02-28T10:38:32;96883.94;;;5.73;100.00
65614;BME280;52283;49.292;10.572;2024-02-28T10:41:00;96890.72;;;4.74;100.00
65614;BME280;52283;49.292;10.572;2024-02-28T10:43:28;96906.16;;;5.24;100.00
65614;BME280;52283;49.292;10.572;2024-02-28T10:45:56;96891.69;;;5.29;100.00
65614;BME280;52283;49.292;10.572;2024-02-28T10:48:24;96898.19;;;4.95;100.00
65614;BME280;52283;49.292;10.572;2024-02-28T10:50:50;96896.16;;;5.27;100.00
65614;BME280;52283;49.292;10.572;2024-02-28T10:53:22;96887.31;;;5.77;100.00
65614;BME280;52283;49.292;10.572;2024-02-28T10:55:53;96886.22;;;5.57;100.00
65614;BME280;52283;49.292;10.572;2024-02-28T10:58:24;96902.69;;;5.42;100.00
65614;BME280;52283;49.292;10.572;2024-02-28T11:00:52;96907.88;;;5.40;100.00
65614;BME280;52283;49.292;10.572;2024-02-28T11:03:18;96903.63;;;5.57;100.00
65614;BME280;52283;49.292;10.572;2024-02-28T11:05:45;96903.63;;;5.57;100.00
65614;BME280;52283;49.292;10.572;2024-02-28T11:08:20;96906.53;;;5.54;100.00
65614;BME280;52283;49.292;10.572;2024-02-28T11:10:47;96909.34;;;5.72;100.00
65614;BME280;52283;49.292;10.572;2024-02-28T11:13:21;96915.63;;;5.54;100.00
65614;BME280;52283;49.292;10.572;2024-02-28T11:15:49;96904.75;;;5.87;100.00
65614;BME280;52283;49.292;10.572;2024-02-28T11:18:16;96907.72;;;5.34;100.00
65614;BME280;52283;49.292;10.572;2024-02-28T11:20:43;96913.00;;;5.41;100.00
65614;BME280;52283;49.292;10.572;2024-02-28T11:23:11;96912.41;;;5.56;100.00
65614;BME280;52283;49.292;10.572;2024-02-28T11:25:39;96907.06;;;5.98;100.00
65614;BME280;52283;49.292;10.572;2024-02-28T11:28:06;96905.97;;;5.86;100.00
65614;BME280;52283;49.292;10.572;2024-02-28T11:30:33;96903.38;;;5.92;100.00
65614;BME280;52283;49.292;10.572;2024-02-28T11:33:01;96913.44;;;5.40;100.00
65614;BME280;52283;49.292;10.572;2024-02-28T11:35:27;96906.09;;;5.82;100.00
65614;BME280;52283;49.292;10.572;2024-02-28T11:37:54;96914.72;;;5.75;100.00
65614;BME280;52283;49.292;10.572;2024-02-28T11:40:22;96904.47;;;5.94;100.00
65614;BME280;52283;49.292;10.572;2024-02-28T11:42:50;96913.53;;;6.22;100.00
65614;BME280;52283;49.292;10.572;2024-02-28T11:45:16;96907.81;;;5.89;100.00
65614;BME280;52283;49.292;10.572;2024-02-28T11:47:44;96912.56;;;5.70;100.00
65614;BME280;52283;49.292;10.572;2024-02-28T11:50:12;96910.16;;;5.91;100.00
65614;BME280;52283;49.292;10.572;2024-02-28T11:52:40;96920.25;;;5.57;100.00
65614;BME280;52283;49.292;10.572;2024-02-28T11:57:33;96923.06;;;5.66;100.00
65614;BME280;52283;49.292;10.572;2024-02-28T12:00:03;96926.75;;;5.63;100.00
65614;BME280;52283;49.292;10.572;2024-02-28T12:02:32;96926.88;;;5.60;100.00
65614;BME280;52283;49.292;10.572;2024-02-28T12:05:00;96925.38;;;5.77;100.00
65614;BME280;52283;49.292;10.572;2024-02-28T12:07:28;96921.88;;;5.95;100.00
65614;BME280;52283;49.292;10.572;2024-02-28T12:09:55;96924.94;;;5.88;100.00
65614;BME280;52283;49.292;10.572;2024-02-28T12:12:21;96925.53;;;5.73;100.00
65614;BME280;52283;49.292;10.572;2024-02-28T12:14:48;96924.28;;;5.65;100.00
65614;BME280;52283;49.292;10.572;2024-02-28T12:17:14;96922.34;;;6.11;100.00
65614;BME280;52283;49.292;10.572;2024-02-28T12:19:41;96916.13;;;5.80;100.00
65614;BME280;52283;49.292;10.572;2024-02-28T12:22:08;96917.31;;;5.61;100.00
65614;BME280;52283;49.292;10.572;2024-02-28T12:24:36;96917.16;;;5.55;100.00
65614;BME280;52283;49.292;10.572;2024-02-28T12:27:03;96914.28;;;5.68;100.00
65614;BME280;52283;49.292;10.572;2024-02-28T12:29:29;96906.69;;;5.59;100.00
65614;BME280;52283;49.292;10.572;2024-02-28T12:31:56;96906.56;;;5.63;100.00
65614;BME280;52283;49.292;10.572;2024-02-28T12:34:23;96915.47;;;5.58;100.00
65614;BME280;52283;49.292;10.572;2024-02-28T12:36:49;96907.22;;;5.85;100.00
65614;BME280;52283;49.292;10.572;2024-02-28T12:39:16;96903.50;;;5.70;100.00
65614;BME280;52283;49.292;10.572;2024-02-28T12:41:44;96902.09;;;5.74;100.00
65614;BME280;52283;49.292;10.572;2024-02-28T12:44:10;96904.44;;;5.85;100.00
65614;BME280;52283;49.292;10.572;2024-02-28T12:46:37;96901.50;;;5.70;100.00
65614;BME280;52283;49.292;10.572;2024-02-28T12:49:03;96902.41;;;5.76;100.00
65614;BME280;52283;49.292;10.572;2024-02-28T12:51:37;96908.44;;;5.84;100.00